Claycomo, Missouri
Current Conditions -  °F | °C
As of 9:54 AM on Thursday 30 Oct 2014 (Local Time) from KMKC Reporting Station
Overcast Overcast  
Wind Chill: 56°   Ceiling: 10000
Heat Index: 56°   Visibility: 10mi
Dew Point: 42°   Wind: 5mph
Humidity: 60%   Direction: 230°SW
Pressure: 30.02"   Gusts: NA
Location:  39.2065°N, 94.5176°W
Report Text: KMKC 301454Z 23004KT 10SM FEW060 FEW080 OVC100 13/06 A3002 RMK AO2 SLP165 T01330056 50005
Loading
Personal Weather Stations






























Interactive Weather Map
Tropical Storm Tracking
New forecast layout! Learn more

10-Day Weather Forecast

Advertisements
Track Severe Weather on mobile